Portada
METAR-TAF:

METAR-TAF

Aeroports :

Ranchi, Índia

latitud: 23-18-51N, longitud: 85-19-18E, altitud: 646 m

Observació

L'informe es va fer fa 29 minuts, a les 05:00 UTC
Vent 6 kt del Sud-Oest
Temperatura 37°C
Humitat 37%
Pressió 1007 hPa
Visibilitat: 5000 m
Núvols disperses a una alçada de 10000 ft
calitja

METAR: VERC 270500Z 22006KT 5000 HZ SCT100 37/20 Q1007 NOSIG

Hora: 10:59 (05:29 UTC)

Pronòstic

L'informe es va fer fa 3 hores i 29 minuts, a les 02:00 UTC
Pronòstic vàlid del 27 a les 03 UTC al 27 a les 12 UTC
Vent 5 kt del Sud-Oest
Visibilitat: 4000 m
Núvols disperses a una alçada de 10000 ft
calitja
Evolucionant progressivament
l' 27 a les 06 UTC al 27 a les 08 UTC
Visibilitat: 5000 m
calitja
Evolucionant progressivament
l' 27 a les 10 UTC al 27 a les 12 UTC
Visibilitat: 6000 m

TAF: VERC 270200Z 2703/2712 23005KT 4000 HZ SCT100 BECMG 2706/2708 5000 HZ BECMG 2710/2712 6000

Observacions i pronòstics meteorològics de més de 4000 aeroports (METAR i TAF).

Les estacions disponibles són els punts grocs i vermells al mapa.

Posi el ratolí al punt desitjat per veure el nom de l'estació.

Feu clic per veure les observacions i els pronòstics meteorològics.

Per canviar el mapa: feu clic els botons verds amb una creu de color negre per apropar; al botó verd amb un guió per allunyar la imatge; o en les fletxes verdes per a mapes adjacents.


METAR-TAF: